sensor_id;sensor_type;location;lat;lon;timestamp;temperature;humidity
64209;DHT22;50527;52.414;13.226;2023-08-21T00:01:59;21.00;97.70
64209;DHT22;50527;52.414;13.226;2023-08-21T00:04:24;21.00;98.10
64209;DHT22;50527;52.414;13.226;2023-08-21T00:06:50;20.90;98.00
64209;DHT22;50527;52.414;13.226;2023-08-21T00:09:15;20.90;97.90
64209;DHT22;50527;52.414;13.226;2023-08-21T00:11:41;20.90;98.30
64209;DHT22;50527;52.414;13.226;2023-08-21T00:14:06;20.90;98.80
64209;DHT22;50527;52.414;13.226;2023-08-21T00:16:32;20.90;99.00
64209;DHT22;50527;52.414;13.226;2023-08-21T00:18:57;20.90;99.20
64209;DHT22;50527;52.414;13.226;2023-08-21T00:21:23;20.90;99.40
64209;DHT22;50527;52.414;13.226;2023-08-21T00:23:48;20.90;99.20
64209;DHT22;50527;52.414;13.226;2023-08-21T00:26:14;20.90;99.40
64209;DHT22;50527;52.414;13.226;2023-08-21T00:28:39;20.90;99.90
64209;DHT22;50527;52.414;13.226;2023-08-21T00:31:05;20.80;99.60
64209;DHT22;50527;52.414;13.226;2023-08-21T00:33:31;20.80;99.90
64209;DHT22;50527;52.414;13.226;2023-08-21T00:35:57;20.80;99.90
64209;DHT22;50527;52.414;13.226;2023-08-21T00:38:23;20.80;99.90
64209;DHT22;50527;52.414;13.226;2023-08-21T00:40:49;20.70;99.90
64209;DHT22;50527;52.414;13.226;2023-08-21T00:43:14;20.70;99.90
64209;DHT22;50527;52.414;13.226;2023-08-21T00:45:42;20.70;99.90
64209;DHT22;50527;52.414;13.226;2023-08-21T00:48:08;20.60;99.90
64209;DHT22;50527;52.414;13.226;2023-08-21T00:50:35;20.60;99.90
64209;DHT22;50527;52.414;13.226;2023-08-21T00:53:01;20.60;99.90
64209;DHT22;50527;52.414;13.226;2023-08-21T00:55:28;20.60;99.90
64209;DHT22;50527;52.414;13.226;2023-08-21T00:57:54;20.60;99.90
64209;DHT22;50527;52.414;13.226;2023-08-21T01:00:21;20.60;99.90
64209;DHT22;50527;52.414;13.226;2023-08-21T01:02:47;20.60;99.90
64209;DHT22;50527;52.414;13.226;2023-08-21T01:05:13;20.60;99.90
64209;DHT22;50527;52.414;13.226;2023-08-21T01:10:33;20.60;99.90
64209;DHT22;50527;52.414;13.226;2023-08-21T01:13:09;20.60;99.90
64209;DHT22;50527;52.414;13.226;2023-08-21T01:15:38;20.70;99.90
64209;DHT22;50527;52.414;13.226;2023-08-21T01:18:04;20.70;99.90
64209;DHT22;50527;52.414;13.226;2023-08-21T01:23:52;20.60;99.90
64209;DHT22;50527;52.414;13.226;2023-08-21T01:26:18;20.60;99.90
64209;DHT22;50527;52.414;13.226;2023-08-21T01:28:43;20.60;99.90
64209;DHT22;50527;52.414;13.226;2023-08-21T01:31:17;20.60;99.90
64209;DHT22;50527;52.414;13.226;2023-08-21T01:33:53;20.60;99.90
64209;DHT22;50527;52.414;13.226;2023-08-21T01:36:20;20.60;99.90
64209;DHT22;50527;52.414;13.226;2023-08-21T01:38:46;20.60;99.90
64209;DHT22;50527;52.414;13.226;2023-08-21T01:41:12;20.70;99.90
64209;DHT22;50527;52.414;13.226;2023-08-21T01:43:37;20.70;99.90
64209;DHT22;50527;52.414;13.226;2023-08-21T01:46:03;20.70;99.90
64209;DHT22;50527;52.414;13.226;2023-08-21T01:48:29;20.70;99.90
64209;DHT22;50527;52.414;13.226;2023-08-21T01:50:54;20.70;99.90
64209;DHT22;50527;52.414;13.226;2023-08-21T01:53:20;20.70;99.90
64209;DHT22;50527;52.414;13.226;2023-08-21T01:55:45;20.70;99.90
64209;DHT22;50527;52.414;13.226;2023-08-21T01:58:11;20.70;99.90
64209;DHT22;50527;52.414;13.226;2023-08-21T02:00:36;20.70;99.90
64209;DHT22;50527;52.414;13.226;2023-08-21T02:03:02;20.70;99.90
64209;DHT22;50527;52.414;13.226;2023-08-21T02:05:27;20.70;99.90
64209;DHT22;50527;52.414;13.226;2023-08-21T02:07:53;20.70;99.90
64209;DHT22;50527;52.414;13.226;2023-08-21T02:10:18;20.70;99.90
64209;DHT22;50527;52.414;13.226;2023-08-21T02:12:44;20.70;99.90
64209;DHT22;50527;52.414;13.226;2023-08-21T02:15:09;20.70;99.90
64209;DHT22;50527;52.414;13.226;2023-08-21T02:17:35;20.70;99.90
64209;DHT22;50527;52.414;13.226;2023-08-21T02:20:01;20.70;99.90
64209;DHT22;50527;52.414;13.226;2023-08-21T02:22:26;20.70;99.90
64209;DHT22;50527;52.414;13.226;2023-08-21T02:24:53;20.70;99.90
64209;DHT22;50527;52.414;13.226;2023-08-21T02:27:18;20.70;99.90
64209;DHT22;50527;52.414;13.226;2023-08-21T02:29:44;20.70;99.90
64209;DHT22;50527;52.414;13.226;2023-08-21T02:32:09;20.70;99.90
64209;DHT22;50527;52.414;13.226;2023-08-21T02:34:35;20.70;99.90
64209;DHT22;50527;52.414;13.226;2023-08-21T02:37:01;20.70;99.90
64209;DHT22;50527;52.414;13.226;2023-08-21T02:39:27;20.70;99.90
64209;DHT22;50527;52.414;13.226;2023-08-21T02:41:53;20.70;99.90
64209;DHT22;50527;52.414;13.226;2023-08-21T02:44:18;20.60;99.90
64209;DHT22;50527;52.414;13.226;2023-08-21T02:46:44;20.70;99.90
64209;DHT22;50527;52.414;13.226;2023-08-21T02:49:09;20.60;99.90
64209;DHT22;50527;52.414;13.226;2023-08-21T02:51:34;20.70;99.90
64209;DHT22;50527;52.414;13.226;2023-08-21T02:54:00;20.70;99.90
64209;DHT22;50527;52.414;13.226;2023-08-21T02:56:25;20.70;99.90
64209;DHT22;50527;52.414;13.226;2023-08-21T02:58:51;20.60;99.90
64209;DHT22;50527;52.414;13.226;2023-08-21T03:01:16;20.60;99.90
64209;DHT22;50527;52.414;13.226;2023-08-21T03:03:42;20.60;99.90
64209;DHT22;50527;52.414;13.226;2023-08-21T03:06:07;20.60;99.90
64209;DHT22;50527;52.414;13.226;2023-08-21T03:08:33;20.60;99.90
64209;DHT22;50527;52.414;13.226;2023-08-21T03:14:20;20.60;99.90
64209;DHT22;50527;52.414;13.226;2023-08-21T03:16:46;20.60;99.90
64209;DHT22;50527;52.414;13.226;2023-08-21T03:19:11;20.60;99.90
64209;DHT22;50527;52.414;13.226;2023-08-21T03:21:37;20.60;99.90
64209;DHT22;50527;52.414;13.226;2023-08-21T03:24:02;20.60;99.90
64209;DHT22;50527;52.414;13.226;2023-08-21T03:26:28;20.60;99.90
64209;DHT22;50527;52.414;13.226;2023-08-21T03:28:53;20.60;99.90
64209;DHT22;50527;52.414;13.226;2023-08-21T03:31:19;20.60;99.90
64209;DHT22;50527;52.414;13.226;2023-08-21T03:33:44;20.60;99.90
64209;DHT22;50527;52.414;13.226;2023-08-21T03:36:10;20.60;99.90
64209;DHT22;50527;52.414;13.226;2023-08-21T03:38:36;20.60;99.90
64209;DHT22;50527;52.414;13.226;2023-08-21T03:41:02;20.60;99.90
64209;DHT22;50527;52.414;13.226;2023-08-21T03:43:27;20.60;99.90
64209;DHT22;50527;52.414;13.226;2023-08-21T03:45:53;20.50;99.90
64209;DHT22;50527;52.414;13.226;2023-08-21T03:48:18;20.50;99.90
64209;DHT22;50527;52.414;13.226;2023-08-21T03:51:18;20.50;99.90
64209;DHT22;50527;52.414;13.226;2023-08-21T03:53:43;20.50;99.90
64209;DHT22;50527;52.414;13.226;2023-08-21T03:56:09;20.50;99.90
64209;DHT22;50527;52.414;13.226;2023-08-21T03:58:35;20.40;99.90
64209;DHT22;50527;52.414;13.226;2023-08-21T04:01:00;20.40;99.90
64209;DHT22;50527;52.414;13.226;2023-08-21T04:03:26;20.40;99.90
64209;DHT22;50527;52.414;13.226;2023-08-21T04:05:53;20.40;99.90
64209;DHT22;50527;52.414;13.226;2023-08-21T04:08:19;20.40;99.90
64209;DHT22;50527;52.414;13.226;2023-08-21T04:10:45;20.40;99.90
64209;DHT22;50527;52.414;13.226;2023-08-21T04:13:10;20.30;99.90
64209;DHT22;50527;52.414;13.226;2023-08-21T04:15:36;20.40;99.90
64209;DHT22;50527;52.414;13.226;2023-08-21T04:18:01;20.40;99.90
64209;DHT22;50527;52.414;13.226;2023-08-21T04:20:27;20.40;99.90
64209;DHT22;50527;52.414;13.226;2023-08-21T04:22:52;20.40;99.90
64209;DHT22;50527;52.414;13.226;2023-08-21T04:25:18;20.40;99.90
64209;DHT22;50527;52.414;13.226;2023-08-21T04:27:43;20.40;99.90
64209;DHT22;50527;52.414;13.226;2023-08-21T04:30:10;20.40;99.90
64209;DHT22;50527;52.414;13.226;2023-08-21T04:32:35;20.50;99.90
64209;DHT22;50527;52.414;13.226;2023-08-21T04:35:01;20.50;99.90
64209;DHT22;50527;52.414;13.226;2023-08-21T04:37:27;20.40;99.90
64209;DHT22;50527;52.414;13.226;2023-08-21T04:39:55;20.50;99.90
64209;DHT22;50527;52.414;13.226;2023-08-21T04:42:21;20.50;99.90
64209;DHT22;50527;52.414;13.226;2023-08-21T04:44:47;20.50;99.90
64209;DHT22;50527;52.414;13.226;2023-08-21T04:47:21;20.60;99.90
64209;DHT22;50527;52.414;13.226;2023-08-21T04:49:51;20.60;99.90
64209;DHT22;50527;52.414;13.226;2023-08-21T04:52:16;20.60;99.90
64209;DHT22;50527;52.414;13.226;2023-08-21T04:54:42;20.60;99.90
64209;DHT22;50527;52.414;13.226;2023-08-21T04:57:07;20.70;99.90
64209;DHT22;50527;52.414;13.226;2023-08-21T04:59:34;20.70;99.90
64209;DHT22;50527;52.414;13.226;2023-08-21T05:02:00;20.70;99.90
64209;DHT22;50527;52.414;13.226;2023-08-21T05:04:25;20.70;99.90
64209;DHT22;50527;52.414;13.226;2023-08-21T05:06:51;20.70;99.90
64209;DHT22;50527;52.414;13.226;2023-08-21T05:09:16;20.70;99.90
64209;DHT22;50527;52.414;13.226;2023-08-21T05:11:42;20.70;99.90
64209;DHT22;50527;52.414;13.226;2023-08-21T05:14:07;20.80;99.90
64209;DHT22;50527;52.414;13.226;2023-08-21T05:16:33;20.80;99.90
64209;DHT22;50527;52.414;13.226;2023-08-21T05:18:58;20.80;99.90
64209;DHT22;50527;52.414;13.226;2023-08-21T05:21:24;20.90;99.90
64209;DHT22;50527;52.414;13.226;2023-08-21T05:23:49;20.90;99.90
64209;DHT22;50527;52.414;13.226;2023-08-21T05:26:14;20.90;99.90
64209;DHT22;50527;52.414;13.226;2023-08-21T05:28:40;21.00;99.90
64209;DHT22;50527;52.414;13.226;2023-08-21T05:31:05;21.00;99.90
64209;DHT22;50527;52.414;13.226;2023-08-21T05:33:31;21.10;99.90
64209;DHT22;50527;52.414;13.226;2023-08-21T05:35:57;21.10;99.90
64209;DHT22;50527;52.414;13.226;2023-08-21T05:38:22;21.20;99.90
64209;DHT22;50527;52.414;13.226;2023-08-21T05:40:48;21.50;99.90
64209;DHT22;50527;52.414;13.226;2023-08-21T05:43:14;21.50;99.90
64209;DHT22;50527;52.414;13.226;2023-08-21T05:45:39;21.60;99.90
64209;DHT22;50527;52.414;13.226;2023-08-21T05:48:05;21.70;99.90
64209;DHT22;50527;52.414;13.226;2023-08-21T05:50:31;21.80;99.90
64209;DHT22;50527;52.414;13.226;2023-08-21T05:52:56;21.90;99.90
64209;DHT22;50527;52.414;13.226;2023-08-21T05:55:23;21.90;99.90
64209;DHT22;50527;52.414;13.226;2023-08-21T06:04:32;22.00;99.90
64209;DHT22;50527;52.414;13.226;2023-08-21T06:06:57;22.10;99.90
64209;DHT22;50527;52.414;13.226;2023-08-21T06:09:22;22.10;99.90
64209;DHT22;50527;52.414;13.226;2023-08-21T06:11:48;22.20;99.90
64209;DHT22;50527;52.414;13.226;2023-08-21T06:14:14;22.70;99.80
64209;DHT22;50527;52.414;13.226;2023-08-21T06:23:07;24.70;90.50
64209;DHT22;50527;52.414;13.226;2023-08-21T06:25:33;24.00;92.70
64209;DHT22;50527;52.414;13.226;2023-08-21T06:27:58;23.60;93.40
64209;DHT22;50527;52.414;13.226;2023-08-21T06:30:24;23.30;94.50
64209;DHT22;50527;52.414;13.226;2023-08-21T06:32:50;23.20;95.10
64209;DHT22;50527;52.414;13.226;2023-08-21T06:35:15;23.10;95.70
64209;DHT22;50527;52.414;13.226;2023-08-21T06:37:41;23.00;96.00
64209;DHT22;50527;52.414;13.226;2023-08-21T06:40:07;23.00;96.30
64209;DHT22;50527;52.414;13.226;2023-08-21T06:42:33;22.90;95.70
64209;DHT22;50527;52.414;13.226;2023-08-21T06:44:58;22.90;95.40
64209;DHT22;50527;52.414;13.226;2023-08-21T06:47:24;23.00;95.60
64209;DHT22;50527;52.414;13.226;2023-08-21T06:49:49;23.10;94.80
64209;DHT22;50527;52.414;13.226;2023-08-21T06:52:15;23.30;93.80
64209;DHT22;50527;52.414;13.226;2023-08-21T06:54:40;23.50;92.00
64209;DHT22;50527;52.414;13.226;2023-08-21T06:57:06;23.60;91.70
64209;DHT22;50527;52.414;13.226;2023-08-21T07:06:16;23.60;91.50
64209;DHT22;50527;52.414;13.226;2023-08-21T07:08:41;24.50;90.30
64209;DHT22;50527;52.414;13.226;2023-08-21T07:11:07;26.50;79.80
64209;DHT22;50527;52.414;13.226;2023-08-21T07:13:37;26.90;76.30
64209;DHT22;50527;52.414;13.226;2023-08-21T07:16:03;26.20;77.30
64209;DHT22;50527;52.414;13.226;2023-08-21T07:18:32;25.70;77.30
64209;DHT22;50527;52.414;13.226;2023-08-21T07:20:58;25.30;79.40
64209;DHT22;50527;52.414;13.226;2023-08-21T07:23:24;25.00;80.00
64209;DHT22;50527;52.414;13.226;2023-08-21T07:25:49;24.80;81.20
64209;DHT22;50527;52.414;13.226;2023-08-21T07:28:15;24.60;81.30
64209;DHT22;50527;52.414;13.226;2023-08-21T07:34:02;24.30;82.40
64209;DHT22;50527;52.414;13.226;2023-08-21T07:36:27;24.10;83.50
64209;DHT22;50527;52.414;13.226;2023-08-21T07:42:15;24.10;82.90
64209;DHT22;50527;52.414;13.226;2023-08-21T07:44:41;24.10;82.70
64209;DHT22;50527;52.414;13.226;2023-08-21T07:47:06;24.10;81.90
64209;DHT22;50527;52.414;13.226;2023-08-21T07:49:35;24.20;81.30
64209;DHT22;50527;52.414;13.226;2023-08-21T07:52:00;24.50;81.40
64209;DHT22;50527;52.414;13.226;2023-08-21T07:54:27;24.80;80.20
64209;DHT22;50527;52.414;13.226;2023-08-21T07:56:53;25.00;76.60
64209;DHT22;50527;52.414;13.226;2023-08-21T07:59:18;24.90;76.30
64209;DHT22;50527;52.414;13.226;2023-08-21T08:01:45;25.00;76.30
64209;DHT22;50527;52.414;13.226;2023-08-21T08:04:10;25.00;75.40
64209;DHT22;50527;52.414;13.226;2023-08-21T08:06:36;24.90;75.90
64209;DHT22;50527;52.414;13.226;2023-08-21T08:09:02;24.80;74.70
64209;DHT22;50527;52.414;13.226;2023-08-21T08:11:29;24.70;75.10
64209;DHT22;50527;52.414;13.226;2023-08-21T08:13:55;24.60;74.40
64209;DHT22;50527;52.414;13.226;2023-08-21T08:16:20;24.50;74.90
64209;DHT22;50527;52.414;13.226;2023-08-21T08:18:46;24.50;73.40
64209;DHT22;50527;52.414;13.226;2023-08-21T08:21:12;24.60;72.40
64209;DHT22;50527;52.414;13.226;2023-08-21T08:23:37;24.60;71.90
64209;DHT22;50527;52.414;13.226;2023-08-21T08:26:03;24.50;70.90
64209;DHT22;50527;52.414;13.226;2023-08-21T08:28:28;24.50;70.80
64209;DHT22;50527;52.414;13.226;2023-08-21T08:30:54;24.50;70.60
64209;DHT22;50527;52.414;13.226;2023-08-21T08:33:20;24.90;69.20
64209;DHT22;50527;52.414;13.226;2023-08-21T08:35:45;25.70;65.50
64209;DHT22;50527;52.414;13.226;2023-08-21T08:38:10;25.70;64.50
64209;DHT22;50527;52.414;13.226;2023-08-21T08:40:44;25.50;66.50
64209;DHT22;50527;52.414;13.226;2023-08-21T08:43:11;25.50;65.80
64209;DHT22;50527;52.414;13.226;2023-08-21T08:45:37;25.40;63.30
64209;DHT22;50527;52.414;13.226;2023-08-21T08:48:04;25.30;62.80
64209;DHT22;50527;52.414;13.226;2023-08-21T08:50:32;25.20;63.70
64209;DHT22;50527;52.414;13.226;2023-08-21T08:52:58;25.10;66.10
64209;DHT22;50527;52.414;13.226;2023-08-21T08:55:25;25.30;66.90
64209;DHT22;50527;52.414;13.226;2023-08-21T08:57:51;25.60;65.20
64209;DHT22;50527;52.414;13.226;2023-08-21T09:00:17;25.90;63.90
64209;DHT22;50527;52.414;13.226;2023-08-21T09:02:43;26.10;64.90
64209;DHT22;50527;52.414;13.226;2023-08-21T09:05:08;26.50;62.60
64209;DHT22;50527;52.414;13.226;2023-08-21T09:07:35;26.70;60.60
64209;DHT22;50527;52.414;13.226;2023-08-21T09:10:02;27.00;58.40
64209;DHT22;50527;52.414;13.226;2023-08-21T09:12:31;27.20;59.10
64209;DHT22;50527;52.414;13.226;2023-08-21T09:14:58;27.50;52.40
64209;DHT22;50527;52.414;13.226;2023-08-21T09:17:24;27.60;49.50
64209;DHT22;50527;52.414;13.226;2023-08-21T09:19:49;27.50;49.70
64209;DHT22;50527;52.414;13.226;2023-08-21T09:22:16;27.50;50.30
64209;DHT22;50527;52.414;13.226;2023-08-21T09:25:04;27.70;49.80
64209;DHT22;50527;52.414;13.226;2023-08-21T09:27:33;27.60;49.30
64209;DHT22;50527;52.414;13.226;2023-08-21T09:30:08;27.70;49.00
64209;DHT22;50527;52.414;13.226;2023-08-21T09:32:57;27.90;48.60
64209;DHT22;50527;52.414;13.226;2023-08-21T09:35:23;28.60;47.80
64209;DHT22;50527;52.414;13.226;2023-08-21T09:37:49;29.40;45.90
64209;DHT22;50527;52.414;13.226;2023-08-21T09:40:18;29.30;45.00
64209;DHT22;50527;52.414;13.226;2023-08-21T09:42:43;29.60;45.80
64209;DHT22;50527;52.414;13.226;2023-08-21T09:45:09;31.40;43.00
64209;DHT22;50527;52.414;13.226;2023-08-21T09:47:36;33.60;41.20
64209;DHT22;50527;52.414;13.226;2023-08-21T09:50:03;35.30;38.50
64209;DHT22;50527;52.414;13.226;2023-08-21T09:52:30;35.50;38.30
64209;DHT22;50527;52.414;13.226;2023-08-21T09:54:56;36.50;36.20
64209;DHT22;50527;52.414;13.226;2023-08-21T09:57:23;36.60;36.30
64209;DHT22;50527;52.414;13.226;2023-08-21T09:59:52;35.30;36.20
64209;DHT22;50527;52.414;13.226;2023-08-21T10:02:18;34.10;37.20
64209;DHT22;50527;52.414;13.226;2023-08-21T10:04:45;33.20;37.90
64209;DHT22;50527;52.414;13.226;2023-08-21T10:07:11;31.80;38.90
64209;DHT22;50527;52.414;13.226;2023-08-21T10:09:40;30.80;40.70
64209;DHT22;50527;52.414;13.226;2023-08-21T10:12:08;31.00;41.50
64209;DHT22;50527;52.414;13.226;2023-08-21T10:14:35;32.00;40.30
64209;DHT22;50527;52.414;13.226;2023-08-21T10:17:01;32.90;39.10
64209;DHT22;50527;52.414;13.226;2023-08-21T10:19:33;33.20;38.70
64209;DHT22;50527;52.414;13.226;2023-08-21T10:21:59;33.90;37.90
64209;DHT22;50527;52.414;13.226;2023-08-21T10:24:34;34.50;37.30
64209;DHT22;50527;52.414;13.226;2023-08-21T10:27:00;35.40;36.40
64209;DHT22;50527;52.414;13.226;2023-08-21T10:29:26;35.90;36.10
64209;DHT22;50527;52.414;13.226;2023-08-21T10:31:59;35.80;35.80
64209;DHT22;50527;52.414;13.226;2023-08-21T10:34:35;35.20;36.20
64209;DHT22;50527;52.414;13.226;2023-08-21T10:37:08;34.10;36.30
64209;DHT22;50527;52.414;13.226;2023-08-21T10:39:39;32.80;39.10
64209;DHT22;50527;52.414;13.226;2023-08-21T10:42:06;32.00;39.10
64209;DHT22;50527;52.414;13.226;2023-08-21T10:44:37;31.30;41.10
64209;DHT22;50527;52.414;13.226;2023-08-21T10:47:16;30.70;42.10
64209;DHT22;50527;52.414;13.226;2023-08-21T10:49:43;30.30;41.90
64209;DHT22;50527;52.414;13.226;2023-08-21T10:52:09;29.90;42.60
64209;DHT22;50527;52.414;13.226;2023-08-21T10:54:49;29.80;43.00
64209;DHT22;50527;52.414;13.226;2023-08-21T10:57:15;29.50;43.40
64209;DHT22;50527;52.414;13.226;2023-08-21T10:59:50;29.20;43.40
64209;DHT22;50527;52.414;13.226;2023-08-21T11:02:15;28.80;42.90
64209;DHT22;50527;52.414;13.226;2023-08-21T11:04:41;28.50;44.00
64209;DHT22;50527;52.414;13.226;2023-08-21T11:07:07;28.40;44.50
64209;DHT22;50527;52.414;13.226;2023-08-21T11:09:36;28.50;44.10
64209;DHT22;50527;52.414;13.226;2023-08-21T11:12:09;28.80;43.90
64209;DHT22;50527;52.414;13.226;2023-08-21T11:14:34;28.90;44.10
64209;DHT22;50527;52.414;13.226;2023-08-21T11:17:03;29.00;43.90
64209;DHT22;50527;52.414;13.226;2023-08-21T11:19:33;29.00;44.00
64209;DHT22;50527;52.414;13.226;2023-08-21T11:22:00;29.10;44.00
64209;DHT22;50527;52.414;13.226;2023-08-21T11:24:39;29.00;44.20
64209;DHT22;50527;52.414;13.226;2023-08-21T11:27:05;29.10;44.90
64209;DHT22;50527;52.414;13.226;2023-08-21T11:29:50;29.00;44.70
64209;DHT22;50527;52.414;13.226;2023-08-21T11:32:17;28.90;44.10
64209;DHT22;50527;52.414;13.226;2023-08-21T11:34:48;29.10;44.30
64209;DHT22;50527;52.414;13.226;2023-08-21T11:37:17;29.00;44.70
64209;DHT22;50527;52.414;13.226;2023-08-21T11:39:47;29.00;43.40
64209;DHT22;50527;52.414;13.226;2023-08-21T11:42:14;28.90;43.30
64209;DHT22;50527;52.414;13.226;2023-08-21T11:44:52;28.70;44.30
64209;DHT22;50527;52.414;13.226;2023-08-21T12:27:56;27.40;44.50
64209;DHT22;50527;52.414;13.226;2023-08-21T12:30:21;27.40;45.30
64209;DHT22;50527;52.414;13.226;2023-08-21T12:46:15;27.30;47.50
64209;DHT22;50527;52.414;13.226;2023-08-21T12:48:41;27.50;47.10
64209;DHT22;50527;52.414;13.226;2023-08-21T12:51:07;27.50;46.00
64209;DHT22;50527;52.414;13.226;2023-08-21T12:56:48;27.30;46.30
64209;DHT22;50527;52.414;13.226;2023-08-21T12:59:14;27.30;47.80
64209;DHT22;50527;52.414;13.226;2023-08-21T13:04:44;27.50;46.20
64209;DHT22;50527;52.414;13.226;2023-08-21T13:10:31;27.70;46.40
64209;DHT22;50527;52.414;13.226;2023-08-21T13:12:57;27.60;44.60
64209;DHT22;50527;52.414;13.226;2023-08-21T13:15:22;27.50;45.10
64209;DHT22;50527;52.414;13.226;2023-08-21T13:17:48;27.60;43.60
64209;DHT22;50527;52.414;13.226;2023-08-21T13:20:13;27.70;43.80
64209;DHT22;50527;52.414;13.226;2023-08-21T13:22:48;27.70;42.50
64209;DHT22;50527;52.414;13.226;2023-08-21T13:25:15;27.80;43.10
64209;DHT22;50527;52.414;13.226;2023-08-21T13:27:41;28.00;43.30
64209;DHT22;50527;52.414;13.226;2023-08-21T13:30:07;28.00;43.10
64209;DHT22;50527;52.414;13.226;2023-08-21T13:32:33;28.00;43.00
64209;DHT22;50527;52.414;13.226;2023-08-21T13:34:59;28.00;43.60
64209;DHT22;50527;52.414;13.226;2023-08-21T13:37:24;27.90;44.00
64209;DHT22;50527;52.414;13.226;2023-08-21T13:39:50;27.90;43.80
64209;DHT22;50527;52.414;13.226;2023-08-21T13:42:15;28.00;43.60
64209;DHT22;50527;52.414;13.226;2023-08-21T13:44:41;28.00;44.20
64209;DHT22;50527;52.414;13.226;2023-08-21T13:47:06;27.80;44.30
64209;DHT22;50527;52.414;13.226;2023-08-21T13:49:32;27.70;44.10
64209;DHT22;50527;52.414;13.226;2023-08-21T13:51:57;27.50;45.10
64209;DHT22;50527;52.414;13.226;2023-08-21T13:54:22;27.60;46.00
64209;DHT22;50527;52.414;13.226;2023-08-21T13:56:48;27.60;46.00
64209;DHT22;50527;52.414;13.226;2023-08-21T13:59:13;27.70;45.90
64209;DHT22;50527;52.414;13.226;2023-08-21T14:01:39;27.70;45.70
64209;DHT22;50527;52.414;13.226;2023-08-21T14:04:04;27.60;45.20
64209;DHT22;50527;52.414;13.226;2023-08-21T14:06:30;27.60;45.40
64209;DHT22;50527;52.414;13.226;2023-08-21T14:08:55;27.70;45.40
64209;DHT22;50527;52.414;13.226;2023-08-21T14:11:21;27.70;45.00
64209;DHT22;50527;52.414;13.226;2023-08-21T14:13:46;27.60;44.90
64209;DHT22;50527;52.414;13.226;2023-08-21T14:16:12;27.50;44.60
64209;DHT22;50527;52.414;13.226;2023-08-21T14:18:38;27.50;44.90
64209;DHT22;50527;52.414;13.226;2023-08-21T14:21:03;27.50;44.60
64209;DHT22;50527;52.414;13.226;2023-08-21T14:23:29;27.50;44.80
64209;DHT22;50527;52.414;13.226;2023-08-21T14:25:54;27.60;43.70
64209;DHT22;50527;52.414;13.226;2023-08-21T14:28:20;27.40;44.30
64209;DHT22;50527;52.414;13.226;2023-08-21T14:30:45;27.30;44.80
64209;DHT22;50527;52.414;13.226;2023-08-21T14:33:12;27.30;44.20
64209;DHT22;50527;52.414;13.226;2023-08-21T14:35:37;27.40;44.80
64209;DHT22;50527;52.414;13.226;2023-08-21T14:38:03;27.30;44.70
64209;DHT22;50527;52.414;13.226;2023-08-21T14:40:29;27.30;44.70
64209;DHT22;50527;52.414;13.226;2023-08-21T14:42:54;27.20;44.50
64209;DHT22;50527;52.414;13.226;2023-08-21T14:45:20;27.10;44.20
64209;DHT22;50527;52.414;13.226;2023-08-21T14:47:45;26.90;45.20
64209;DHT22;50527;52.414;13.226;2023-08-21T14:50:11;27.10;45.30
64209;DHT22;50527;52.414;13.226;2023-08-21T14:52:36;27.00;45.20
64209;DHT22;50527;52.414;13.226;2023-08-21T14:55:02;26.90;45.20
64209;DHT22;50527;52.414;13.226;2023-08-21T14:57:27;26.90;46.30
64209;DHT22;50527;52.414;13.226;2023-08-21T14:59:53;26.90;46.50
64209;DHT22;50527;52.414;13.226;2023-08-21T15:02:19;26.90;46.20
64209;DHT22;50527;52.414;13.226;2023-08-21T15:04:44;26.70;46.60
64209;DHT22;50527;52.414;13.226;2023-08-21T15:07:10;26.60;46.50
64209;DHT22;50527;52.414;13.226;2023-08-21T15:09:35;26.50;47.20
64209;DHT22;50527;52.414;13.226;2023-08-21T15:12:01;26.40;47.00
64209;DHT22;50527;52.414;13.226;2023-08-21T15:14:26;26.20;47.70
64209;DHT22;50527;52.414;13.226;2023-08-21T15:16:52;26.10;48.10
64209;DHT22;50527;52.414;13.226;2023-08-21T15:19:17;26.10;48.00
64209;DHT22;50527;52.414;13.226;2023-08-21T15:21:43;26.00;48.90
64209;DHT22;50527;52.414;13.226;2023-08-21T15:24:08;26.00;48.80
64209;DHT22;50527;52.414;13.226;2023-08-21T15:26:34;26.10;49.50
64209;DHT22;50527;52.414;13.226;2023-08-21T15:29:00;26.30;49.70
64209;DHT22;50527;52.414;13.226;2023-08-21T15:31:26;26.40;49.30
64209;DHT22;50527;52.414;13.226;2023-08-21T15:33:51;26.50;48.00
64209;DHT22;50527;52.414;13.226;2023-08-21T15:36:17;26.50;48.50
64209;DHT22;50527;52.414;13.226;2023-08-21T15:38:42;26.60;47.80
64209;DHT22;50527;52.414;13.226;2023-08-21T15:41:07;26.60;47.70
64209;DHT22;50527;52.414;13.226;2023-08-21T15:43:33;26.70;48.10
64209;DHT22;50527;52.414;13.226;2023-08-21T15:45:59;26.60;47.70
64209;DHT22;50527;52.414;13.226;2023-08-21T15:48:29;26.60;47.40
64209;DHT22;50527;52.414;13.226;2023-08-21T15:50:55;26.50;48.30
64209;DHT22;50527;52.414;13.226;2023-08-21T15:53:20;26.40;48.10
64209;DHT22;50527;52.414;13.226;2023-08-21T15:55:46;26.40;48.20
64209;DHT22;50527;52.414;13.226;2023-08-21T15:58:11;26.40;48.70
64209;DHT22;50527;52.414;13.226;2023-08-21T16:00:37;26.40;49.00
64209;DHT22;50527;52.414;13.226;2023-08-21T16:03:03;26.40;49.20
64209;DHT22;50527;52.414;13.226;2023-08-21T16:05:29;26.40;49.20
64209;DHT22;50527;52.414;13.226;2023-08-21T16:07:55;26.40;48.20
64209;DHT22;50527;52.414;13.226;2023-08-21T16:10:20;26.40;49.00
64209;DHT22;50527;52.414;13.226;2023-08-21T16:12:46;26.40;48.80
64209;DHT22;50527;52.414;13.226;2023-08-21T16:15:12;26.40;49.20
64209;DHT22;50527;52.414;13.226;2023-08-21T16:17:37;26.40;48.70
64209;DHT22;50527;52.414;13.226;2023-08-21T16:20:03;26.40;48.00
64209;DHT22;50527;52.414;13.226;2023-08-21T16:22:31;26.40;49.00
64209;DHT22;50527;52.414;13.226;2023-08-21T16:24:56;26.20;49.20
64209;DHT22;50527;52.414;13.226;2023-08-21T16:27:22;26.20;48.80
64209;DHT22;50527;52.414;13.226;2023-08-21T16:29:47;26.20;49.80
64209;DHT22;50527;52.414;13.226;2023-08-21T16:32:13;26.20;49.90
64209;DHT22;50527;52.414;13.226;2023-08-21T16:34:38;26.20;49.30
64209;DHT22;50527;52.414;13.226;2023-08-21T16:37:04;26.10;50.70
64209;DHT22;50527;52.414;13.226;2023-08-21T16:39:29;26.10;50.80
64209;DHT22;50527;52.414;13.226;2023-08-21T16:41:55;26.10;50.80
64209;DHT22;50527;52.414;13.226;2023-08-21T16:44:21;26.00;50.50
64209;DHT22;50527;52.414;13.226;2023-08-21T16:46:48;26.00;51.70
64209;DHT22;50527;52.414;13.226;2023-08-21T16:49:13;25.90;51.40
64209;DHT22;50527;52.414;13.226;2023-08-21T16:51:39;25.90;51.10